Time;durP1;ratioP1;P1;durP2;ratioP2;P2;SDS_P1;SDS_P2;PMS_P1;PMS_P2;Temp;Humidity;BMP_temperature;BMP_pressure;BME280_temperature;BME280_humidity;BME280_pressure;Samples;Min_cycle;Max_cycle;Signal;HPM_P1;HPM_P2
2022/04/23 00:00:23;;;;;;;9.43;6.30;;;;;;;;;;5045974;28;20563;-80
2022/04/23 00:02:50;;;;;;;12.68;6.72;;;;;;;;;;5045302;28;20873;-78
2022/04/23 00:05:16;;;;;;;10.45;6.18;;;;;;;;;;5046131;28;20129;-81
2022/04/23 00:07:42;;;;;;;12.23;7.00;;;;;;;;;;5044573;28;20089;-81
2022/04/23 00:10:09;;;;;;;10.93;6.65;;;;;;;;;;5045731;28;20149;-81
2022/04/23 00:12:36;;;;;;;12.13;6.32;;;;;;;;;;5046299;28;20089;-80
2022/04/23 00:15:05;;;;;;;9.60;6.30;;;;;;;;;;5048540;28;20053;-79
2022/04/23 00:17:31;;;;;;;13.52;6.65;;;;;;;;;;5046505;28;20060;-81
2022/04/23 00:19:58;;;;;;;11.43;7.38;;;;;;;;;;5048011;28;20753;-82
2022/04/23 00:22:24;;;;;;;10.82;6.82;;;;;;;;;;5047074;28;20152;-79
2022/04/23 00:24:51;;;;;;;17.42;6.53;;;;;;;;;;5048787;28;20053;-82
2022/04/23 00:27:17;;;;;;;11.93;6.72;;;;;;;;;;5046082;28;20053;-80
2022/04/23 00:29:43;;;;;;;11.70;7.68;;;;;;;;;;5043533;28;20100;-80
2022/04/23 00:32:10;;;;;;;11.07;6.78;;;;;;;;;;5050547;28;20427;-81
2022/04/23 00:34:36;;;;;;;10.73;7.40;;;;;;;;;;5052297;28;20507;-81
2022/04/23 00:37:03;;;;;;;9.25;6.80;;;;;;;;;;5051984;28;20064;-81
2022/04/23 00:39:30;;;;;;;12.00;7.55;;;;;;;;;;5051396;28;20045;-79
2022/04/23 00:41:59;;;;;;;11.27;7.43;;;;;;;;;;5053602;28;20597;-82
2022/04/23 00:44:26;;;;;;;13.32;7.68;;;;;;;;;;5049251;28;20056;-81
2022/04/23 00:46:52;;;;;;;14.93;7.95;;;;;;;;;;5048206;28;20137;-80
2022/04/23 00:49:18;;;;;;;11.63;7.70;;;;;;;;;;5048690;28;20870;-80
2022/04/23 00:51:45;;;;;;;15.25;8.25;;;;;;;;;;5052203;28;20136;-81
2022/04/23 00:54:11;;;;;;;13.93;8.05;;;;;;;;;;5052219;28;20057;-82
2022/04/23 00:56:40;;;;;;;11.93;8.63;;;;;;;;;;5049244;28;20140;-80
2022/04/23 00:59:08;;;;;;;12.27;8.23;;;;;;;;;;5050050;28;20500;-81
2022/04/23 01:01:35;;;;;;;14.02;8.43;;;;;;;;;;5049604;28;20064;-79
2022/04/23 01:04:02;;;;;;;14.73;9.15;;;;;;;;;;5055089;28;20088;-81
2022/04/23 01:06:33;;;;;;;12.60;8.48;;;;;;;;;;5048666;28;20049;-82
2022/04/23 01:09:04;;;;;;;15.95;9.10;;;;;;;;;;5049242;28;20871;-81
2022/04/23 01:11:31;;;;;;;14.15;9.38;;;;;;;;;;5049443;28;20598;-81
2022/04/23 01:13:58;;;;;;;19.83;9.55;;;;;;;;;;5048535;28;20057;-79
2022/04/23 01:16:24;;;;;;;13.98;8.90;;;;;;;;;;5050414;28;20562;-80
2022/04/23 01:18:51;;;;;;;15.55;9.65;;;;;;;;;;5048626;28;20508;-81
2022/04/23 01:21:17;;;;;;;15.63;10.18;;;;;;;;;;5050471;28;20061;-82
2022/04/23 01:23:47;;;;;;;14.25;9.75;;;;;;;;;;5048726;28;20049;-82
2022/04/23 01:26:23;;;;;;;16.38;9.82;;;;;;;;;;5046961;28;20081;-80
2022/04/23 01:28:50;;;;;;;17.35;9.18;;;;;;;;;;5046811;28;20148;-82
2022/04/23 01:31:16;;;;;;;16.02;10.52;;;;;;;;;;5049767;28;20051;-82
2022/04/23 01:33:42;;;;;;;16.00;10.38;;;;;;;;;;5047202;28;20053;-80
2022/04/23 01:36:09;;;;;;;14.98;9.43;;;;;;;;;;5047183;28;20131;-81
2022/04/23 01:38:35;;;;;;;15.30;10.27;;;;;;;;;;5048541;28;20132;-81
2022/04/23 01:41:01;;;;;;;18.33;10.15;;;;;;;;;;5048703;28;20107;-81
2022/04/23 01:43:28;;;;;;;19.70;10.45;;;;;;;;;;5059780;28;20664;-82
2022/04/23 01:45:54;;;;;;;16.17;10.25;;;;;;;;;;5054568;28;20553;-80
2022/04/23 01:48:21;;;;;;;16.95;10.23;;;;;;;;;;5049895;28;20058;-80
2022/04/23 01:50:47;;;;;;;15.30;10.55;;;;;;;;;;5048312;28;20476;-79
2022/04/23 01:53:14;;;;;;;18.55;11.10;;;;;;;;;;5047553;28;20053;-81
2022/04/23 01:55:40;;;;;;;15.88;11.00;;;;;;;;;;5049460;28;20520;-79
2022/04/23 01:58:07;;;;;;;20.42;11.88;;;;;;;;;;5042788;28;20058;-81
2022/04/23 02:00:33;;;;;;;17.65;10.77;;;;;;;;;;5050119;28;20092;-80
2022/04/23 02:03:00;;;;;;;19.90;11.85;;;;;;;;;;5051302;28;20057;-78
2022/04/23 02:05:27;;;;;;;18.80;10.90;;;;;;;;;;5049657;28;20072;-80
2022/04/23 02:07:53;;;;;;;19.13;11.15;;;;;;;;;;5045996;28;20065;-82
2022/04/23 02:10:19;;;;;;;18.90;11.18;;;;;;;;;;5044945;28;20143;-82
2022/04/23 02:12:46;;;;;;;19.40;12.55;;;;;;;;;;5047913;28;20092;-79
2022/04/23 02:15:13;;;;;;;20.63;12.20;;;;;;;;;;5048403;28;20091;-82
2022/04/23 02:17:41;;;;;;;18.40;12.30;;;;;;;;;;5040654;28;20137;-80
2022/04/23 02:20:11;;;;;;;20.58;12.25;;;;;;;;;;5048286;28;20077;-81
2022/04/23 02:22:37;;;;;;;20.52;11.98;;;;;;;;;;5047704;28;20086;-80
2022/04/23 02:25:07;;;;;;;20.77;12.73;;;;;;;;;;5048626;28;20111;-80
2022/04/23 02:27:41;;;;;;;20.48;13.15;;;;;;;;;;5047843;28;20058;-79
2022/04/23 02:30:08;;;;;;;20.20;12.57;;;;;;;;;;5047973;28;20068;-79
2022/04/23 02:32:34;;;;;;;20.42;12.18;;;;;;;;;;5048750;28;20500;-80
2022/04/23 02:35:00;;;;;;;21.77;13.27;;;;;;;;;;5047950;28;20081;-81
2022/04/23 02:37:27;;;;;;;19.15;13.35;;;;;;;;;;5045879;28;20065;-81
2022/04/23 02:39:54;;;;;;;20.83;13.55;;;;;;;;;;5047532;28;20081;-79
2022/04/23 02:42:20;;;;;;;25.33;13.25;;;;;;;;;;5046237;28;20097;-81
2022/04/23 02:44:47;;;;;;;23.42;13.73;;;;;;;;;;5038032;28;20057;-81
2022/04/23 02:47:14;;;;;;;22.35;14.48;;;;;;;;;;5046991;28;20053;-82
2022/04/23 02:49:40;;;;;;;24.83;14.13;;;;;;;;;;5047636;28;20061;-79
2022/04/23 02:52:07;;;;;;;24.05;14.30;;;;;;;;;;5047703;28;20087;-81
2022/04/23 02:54:33;;;;;;;21.83;14.43;;;;;;;;;;5051324;28;20151;-80
2022/04/23 02:57:00;;;;;;;24.60;14.02;;;;;;;;;;5049574;28;20041;-80
2022/04/23 02:59:27;;;;;;;23.52;14.80;;;;;;;;;;5054752;28;20084;-79
2022/04/23 03:01:53;;;;;;;23.45;15.07;;;;;;;;;;5047322;28;20091;-79
2022/04/23 03:04:20;;;;;;;22.92;14.55;;;;;;;;;;5046395;28;20049;-81
2022/04/23 03:06:47;;;;;;;22.60;15.05;;;;;;;;;;5045154;28;20045;-80
2022/04/23 03:09:13;;;;;;;23.73;15.52;;;;;;;;;;5045110;28;20133;-78
2022/04/23 03:11:40;;;;;;;22.83;14.48;;;;;;;;;;5048594;28;20049;-82
2022/04/23 03:14:06;;;;;;;26.50;15.25;;;;;;;;;;5047771;28;20057;-80
2022/04/23 03:16:32;;;;;;;23.42;15.40;;;;;;;;;;5045740;28;20483;-82
2022/04/23 03:19:00;;;;;;;22.92;15.00;;;;;;;;;;5045649;28;20524;-81
2022/04/23 03:21:26;;;;;;;23.77;15.65;;;;;;;;;;5046855;28;20053;-81
2022/04/23 03:23:53;;;;;;;24.77;15.25;;;;;;;;;;5046282;28;20574;-81
2022/04/23 03:26:19;;;;;;;21.63;14.65;;;;;;;;;;5050586;28;20057;-80
2022/04/23 03:28:48;;;;;;;24.70;16.10;;;;;;;;;;5041669;28;20056;-80
2022/04/23 03:31:15;;;;;;;23.55;15.27;;;;;;;;;;5048318;28;20053;-80
2022/04/23 03:33:41;;;;;;;25.15;16.15;;;;;;;;;;5047548;28;20061;-81
2022/04/23 03:36:08;;;;;;;24.85;15.80;;;;;;;;;;5046847;28;20096;-81
2022/04/23 03:38:35;;;;;;;26.73;16.77;;;;;;;;;;5046003;28;20077;-80
2022/04/23 03:41:02;;;;;;;24.10;15.80;;;;;;;;;;5046596;28;20064;-80
2022/04/23 03:43:30;;;;;;;26.90;16.35;;;;;;;;;;5037041;28;20053;-80
2022/04/23 03:45:56;;;;;;;25.65;17.42;;;;;;;;;;5048056;28;20500;-80
2022/04/23 03:48:23;;;;;;;25.80;16.33;;;;;;;;;;5054165;28;20057;-81
2022/04/23 03:50:49;;;;;;;28.70;17.52;;;;;;;;;;5049113;28;20128;-80
2022/04/23 03:53:16;;;;;;;26.02;16.80;;;;;;;;;;5048305;28;20136;-80
2022/04/23 03:55:42;;;;;;;25.60;16.80;;;;;;;;;;5048182;28;20698;-81
2022/04/23 03:58:08;;;;;;;24.60;16.48;;;;;;;;;;5045125;28;20062;-81
2022/04/23 04:00:35;;;;;;;25.38;17.35;;;;;;;;;;5058968;28;20057;-80
2022/04/23 04:03:02;;;;;;;28.15;17.23;;;;;;;;;;5049297;28;20144;-80
2022/04/23 04:05:29;;;;;;;26.08;17.10;;;;;;;;;;5049027;28;20504;-80
2022/04/23 04:07:55;;;;;;;27.65;17.48;;;;;;;;;;5050255;28;20049;-80
2022/04/23 04:10:22;;;;;;;25.92;17.15;;;;;;;;;;5049169;28;20049;-81
2022/04/23 04:12:49;;;;;;;30.63;18.60;;;;;;;;;;5049416;28;20148;-79
2022/04/23 04:15:16;;;;;;;28.50;17.77;;;;;;;;;;5047331;28;20135;-79
2022/04/23 04:17:47;;;;;;;30.63;18.25;;;;;;;;;;5058422;28;20057;-81
2022/04/23 04:20:14;;;;;;;29.52;18.40;;;;;;;;;;5048101;28;20049;-80
2022/04/23 04:22:41;;;;;;;28.70;18.83;;;;;;;;;;5049413;28;20550;-81
2022/04/23 04:25:08;;;;;;;28.83;17.17;;;;;;;;;;5046188;28;20049;-80
2022/04/23 04:27:36;;;;;;;27.83;17.73;;;;;;;;;;5052342;28;20057;-78
2022/04/23 04:30:04;;;;;;;28.77;17.98;;;;;;;;;;5037761;28;20050;-81
2022/04/23 04:32:31;;;;;;;29.48;17.75;;;;;;;;;;5044050;28;20131;-79
2022/04/23 04:34:57;;;;;;;30.58;17.42;;;;;;;;;;5048098;28;20728;-81
2022/04/23 04:37:24;;;;;;;29.80;18.50;;;;;;;;;;5047224;28;20100;-80
2022/04/23 04:39:51;;;;;;;28.63;18.25;;;;;;;;;;5048948;28;20085;-80
2022/04/23 04:42:17;;;;;;;29.52;17.92;;;;;;;;;;5048443;28;20859;-81
2022/04/23 04:44:43;;;;;;;27.48;17.80;;;;;;;;;;5048184;28;20154;-80
2022/04/23 04:47:10;;;;;;;27.05;17.58;;;;;;;;;;5045069;28;20172;-82
2022/04/23 04:49:37;;;;;;;31.02;18.98;;;;;;;;;;5052177;28;20514;-80
2022/04/23 04:52:04;;;;;;;28.75;18.58;;;;;;;;;;5048444;28;20053;-79
2022/04/23 04:54:30;;;;;;;28.38;18.73;;;;;;;;;;5044647;28;20128;-80
2022/04/23 04:56:57;;;;;;;28.20;17.52;;;;;;;;;;5048719;28;20132;-79
2022/04/23 04:59:23;;;;;;;29.88;18.27;;;;;;;;;;5049070;28;20147;-79
2022/04/23 05:01:50;;;;;;;29.63;18.83;;;;;;;;;;5050894;28;20049;-80
2022/04/23 05:04:17;;;;;;;27.90;18.38;;;;;;;;;;5048935;28;20054;-81
2022/04/23 05:06:44;;;;;;;27.30;18.25;;;;;;;;;;5049814;28;20108;-81
2022/04/23 05:09:10;;;;;;;29.42;18.45;;;;;;;;;;5048905;28;20085;-81
2022/04/23 05:11:36;;;;;;;31.42;19.08;;;;;;;;;;5045940;28;20053;-81
2022/04/23 05:14:03;;;;;;;30.77;18.58;;;;;;;;;;5049570;28;20065;-82
2022/04/23 05:16:30;;;;;;;27.73;18.23;;;;;;;;;;5048020;28;20491;-79
2022/04/23 05:18:57;;;;;;;29.60;19.23;;;;;;;;;;5048046;28;20124;-80
2022/04/23 05:21:24;;;;;;;28.42;18.23;;;;;;;;;;5049020;28;21267;-82
2022/04/23 05:23:50;;;;;;;29.95;19.40;;;;;;;;;;5050630;28;20112;-80
2022/04/23 05:26:17;;;;;;;30.92;18.67;;;;;;;;;;5047636;28;20041;-81
2022/04/23 05:28:43;;;;;;;26.25;17.80;;;;;;;;;;5046902;28;20556;-81
2022/04/23 05:31:10;;;;;;;26.80;18.13;;;;;;;;;;5046670;28;20500;-82
2022/04/23 05:33:38;;;;;;;27.27;17.75;;;;;;;;;;5049595;28;20409;-80
2022/04/23 05:36:06;;;;;;;29.02;18.13;;;;;;;;;;5050895;28;20054;-82
2022/04/23 05:38:36;;;;;;;29.92;18.73;;;;;;;;;;5047792;28;20524;-82
2022/04/23 05:41:03;;;;;;;27.23;17.85;;;;;;;;;;5047814;28;20583;-82
2022/04/23 05:43:29;;;;;;;26.35;17.55;;;;;;;;;;5049187;28;20062;-80
2022/04/23 05:46:00;;;;;;;26.48;17.67;;;;;;;;;;5049387;28;20057;-82
2022/04/23 05:48:27;;;;;;;24.38;16.52;;;;;;;;;;5046844;28;20111;-81
2022/04/23 05:50:54;;;;;;;28.77;17.60;;;;;;;;;;5046749;28;20065;-81
2022/04/23 05:53:20;;;;;;;23.30;15.77;;;;;;;;;;5048230;28;20160;-81
2022/04/23 05:55:46;;;;;;;23.70;16.38;;;;;;;;;;5048412;28;20605;-82
2022/04/23 05:58:13;;;;;;;26.30;16.65;;;;;;;;;;5049556;28;20111;-80
2022/04/23 06:00:39;;;;;;;22.85;15.80;;;;;;;;;;5041992;28;20136;-81
2022/04/23 06:03:06;;;;;;;23.58;15.23;;;;;;;;;;5050126;28;20049;-82
2022/04/23 06:05:32;;;;;;;22.98;15.43;;;;;;;;;;5050099;28;20057;-81
2022/04/23 06:07:59;;;;;;;23.13;14.60;;;;;;;;;;5048376;28;20100;-81
2022/04/23 06:10:25;;;;;;;22.38;14.88;;;;;;;;;;5043929;28;20132;-80
2022/04/23 06:12:52;;;;;;;22.83;14.60;;;;;;;;;;5040206;28;20542;-81
2022/04/23 06:15:18;;;;;;;21.73;14.63;;;;;;;;;;5043446;28;20057;-81
2022/04/23 06:17:45;;;;;;;22.58;14.63;;;;;;;;;;5045055;28;20057;-81
2022/04/23 06:20:12;;;;;;;23.20;15.35;;;;;;;;;;5044353;28;20133;-81
2022/04/23 06:22:38;;;;;;;23.15;14.77;;;;;;;;;;5048941;28;20115;-80
2022/04/23 06:25:06;;;;;;;21.30;14.20;;;;;;;;;;5047726;28;20512;-82
2022/04/23 06:27:33;;;;;;;22.27;14.75;;;;;;;;;;5045584;28;20053;-80
2022/04/23 06:29:59;;;;;;;22.77;14.30;;;;;;;;;;5046705;28;20053;-81
2022/04/23 06:32:25;;;;;;;20.92;14.65;;;;;;;;;;5043223;28;20415;-80
2022/04/23 06:34:52;;;;;;;19.70;13.20;;;;;;;;;;5044996;28;20089;-80
2022/04/23 06:37:18;;;;;;;21.60;14.60;;;;;;;;;;5048127;28;20057;-81
2022/04/23 06:39:45;;;;;;;22.13;14.73;;;;;;;;;;5048280;28;20061;-81
2022/04/23 06:42:13;;;;;;;20.92;14.43;;;;;;;;;;5047771;28;20058;-81
2022/04/23 06:44:39;;;;;;;19.23;13.57;;;;;;;;;;5047448;28;20060;-80
2022/04/23 06:47:06;;;;;;;18.80;13.35;;;;;;;;;;5047137;28;20076;-80
2022/04/23 06:49:33;;;;;;;21.25;13.93;;;;;;;;;;5042271;28;20089;-81
2022/04/23 06:51:59;;;;;;;19.48;13.38;;;;;;;;;;5049694;28;20084;-81
2022/04/23 06:54:25;;;;;;;19.67;13.77;;;;;;;;;;5050104;28;20065;-80
2022/04/23 06:56:52;;;;;;;20.83;13.73;;;;;;;;;;5051901;28;20096;-81
2022/04/23 06:59:18;;;;;;;19.15;13.40;;;;;;;;;;5038914;28;20532;-80
2022/04/23 07:01:45;;;;;;;19.98;12.93;;;;;;;;;;5043764;28;21222;-80
2022/04/23 07:04:12;;;;;;;18.75;12.90;;;;;;;;;;5043240;28;20068;-80
2022/04/23 07:06:38;;;;;;;18.38;13.13;;;;;;;;;;5045632;28;20527;-80
2022/04/23 07:09:05;;;;;;;19.73;12.18;;;;;;;;;;5047826;28;20513;-80
2022/04/23 07:11:32;;;;;;;22.15;13.55;;;;;;;;;;5041825;28;20500;-81
2022/04/23 07:13:58;;;;;;;18.33;13.10;;;;;;;;;;5047131;28;20049;-80
2022/04/23 07:16:24;;;;;;;18.38;13.05;;;;;;;;;;5048312;28;20269;-80
2022/04/23 07:18:54;;;;;;;20.60;12.88;;;;;;;;;;5042946;28;20064;-81
2022/04/23 07:21:21;;;;;;;19.35;12.85;;;;;;;;;;5047114;28;20096;-82
2022/04/23 07:24:03;;;;;;;17.33;12.50;;;;;;;;;;5056371;28;20048;-81
2022/04/23 07:26:31;;;;;;;16.42;12.02;;;;;;;;;;5048984;28;20081;-81
2022/04/23 07:28:57;;;;;;;25.90;12.75;;;;;;;;;;5048109;28;20058;-81
2022/04/23 07:31:25;;;;;;;20.95;12.73;;;;;;;;;;5046565;28;20127;-81
2022/04/23 07:39:21;;;;;;;17.55;12.43;;;;;;;;;;5045111;28;20058;-81
2022/04/23 07:41:48;;;;;;;17.77;11.55;;;;;;;;;;5045750;28;20089;-80
2022/04/23 07:44:14;;;;;;;18.40;12.90;;;;;;;;;;5046365;28;20668;-81
2022/04/23 07:46:40;;;;;;;17.42;12.05;;;;;;;;;;5046946;28;20500;-81
2022/04/23 07:49:07;;;;;;;17.33;12.50;;;;;;;;;;5045791;28;20060;-81
2022/04/23 07:51:33;;;;;;;22.05;13.30;;;;;;;;;;5044691;28;20152;-79
2022/04/23 07:54:01;;;;;;;18.58;11.65;;;;;;;;;;5040162;28;20069;-81
2022/04/23 07:56:27;;;;;;;17.08;11.80;;;;;;;;;;5046320;28;20124;-81
2022/04/23 07:58:54;;;;;;;18.58;12.30;;;;;;;;;;5045922;28;20095;-81
2022/04/23 08:01:20;;;;;;;17.83;12.23;;;;;;;;;;5056072;28;20038;-81
2022/04/23 08:03:47;;;;;;;18.85;11.65;;;;;;;;;;5043974;28;20068;-81
2022/04/23 08:06:14;;;;;;;21.10;12.32;;;;;;;;;;5044482;28;20056;-81
2022/04/23 08:08:41;;;;;;;18.98;12.50;;;;;;;;;;5054513;28;20096;-80
2022/04/23 08:11:07;;;;;;;20.48;12.25;;;;;;;;;;5043449;28;20058;-80
2022/04/23 08:13:33;;;;;;;19.35;11.68;;;;;;;;;;5047920;28;20107;-80
2022/04/23 08:16:00;;;;;;;16.90;11.85;;;;;;;;;;5046989;28;20058;-80
2022/04/23 08:18:29;;;;;;;17.63;11.60;;;;;;;;;;5045392;28;20510;-79
2022/04/23 08:20:56;;;;;;;18.38;12.15;;;;;;;;;;5047220;28;20061;-78
2022/04/23 08:23:23;;;;;;;17.27;12.00;;;;;;;;;;5046180;28;20108;-80
2022/04/23 08:25:49;;;;;;;18.33;12.15;;;;;;;;;;5040534;28;20105;-78
2022/04/23 08:31:01;;;;;;;16.60;11.75;;;;;;;;;;5042651;28;20113;-78
2022/04/23 08:33:57;;;;;;;16.88;11.85;;;;;;;;;;5042062;28;20061;-80
2022/04/23 08:36:14;;;;;;;16.75;12.07;;;;;;;;;;5043770;28;20049;-80
2022/04/23 08:38:40;;;;;;;15.05;11.77;;;;;;;;;;5042726;28;20144;-79
2022/04/23 08:41:07;;;;;;;17.40;11.77;;;;;;;;;;5052956;28;20049;-78
2022/04/23 08:43:33;;;;;;;19.38;11.95;;;;;;;;;;5054034;28;20108;-80
2022/04/23 08:46:02;;;;;;;17.83;12.02;;;;;;;;;;5046347;28;20139;-78
2022/04/23 08:48:37;;;;;;;18.67;12.05;;;;;;;;;;5046141;28;20143;-81
2022/04/23 08:51:11;;;;;;;17.33;12.05;;;;;;;;;;5046322;28;20073;-80
2022/04/23 08:53:40;;;;;;;16.02;12.25;;;;;;;;;;5049791;28;20049;-79
2022/04/23 08:56:08;;;;;;;18.60;12.07;;;;;;;;;;5040386;28;20116;-80
2022/04/23 08:58:34;;;;;;;17.48;12.88;;;;;;;;;;5055460;28;20085;-80
2022/04/23 09:01:01;;;;;;;20.40;12.23;;;;;;;;;;5049159;28;20042;-79
2022/04/23 09:03:28;;;;;;;19.30;12.73;;;;;;;;;;5040103;28;20149;-79
2022/04/23 09:05:54;;;;;;;17.58;12.30;;;;;;;;;;5049578;28;20061;-79
2022/04/23 09:08:20;;;;;;;19.60;12.57;;;;;;;;;;5058730;28;20088;-79
2022/04/23 09:10:57;;;;;;;20.75;12.57;;;;;;;;;;5041192;28;20144;-80
2022/04/23 09:13:24;;;;;;;20.00;12.40;;;;;;;;;;5041262;28;20096;-80
2022/04/23 09:24:19;;;;;;;15.73;11.60;;;;;;;;;;5049968;28;20482;-79
2022/04/23 09:27:06;;;;;;;16.95;12.52;;;;;;;;;;5048773;28;20127;-79
2022/04/23 09:29:32;;;;;;;18.10;12.98;;;;;;;;;;5045025;28;20474;-80
2022/04/23 09:32:27;;;;;;;18.02;12.63;;;;;;;;;;5048102;28;20058;-79
2022/04/23 09:35:07;;;;;;;16.88;11.90;;;;;;;;;;5048195;28;20060;-80
2022/04/23 09:40:21;;;;;;;16.48;12.48;;;;;;;;;;5050018;28;20586;-79
2022/04/23 09:42:54;;;;;;;21.10;12.45;;;;;;;;;;5053376;28;20128;-79
2022/04/23 09:45:20;;;;;;;20.20;13.00;;;;;;;;;;5043437;28;20431;-80
2022/04/23 09:47:47;;;;;;;16.67;12.77;;;;;;;;;;5048495;28;20435;-80
2022/04/23 09:50:13;;;;;;;16.92;12.85;;;;;;;;;;5048737;28;20097;-80
2022/04/23 09:52:40;;;;;;;18.20;12.38;;;;;;;;;;5049882;28;20508;-79
2022/04/23 09:55:23;;;;;;;16.42;11.00;;;;;;;;;;5050152;28;20597;-79
2022/04/23 09:57:50;;;;;;;16.58;12.23;;;;;;;;;;5048987;28;20595;-80
2022/04/23 10:00:16;;;;;;;18.95;13.32;;;;;;;;;;5039689;28;20559;-80
2022/04/23 10:02:44;;;;;;;18.33;12.63;;;;;;;;;;5042288;28;20530;-79
2022/04/23 10:05:11;;;;;;;19.80;13.00;;;;;;;;;;5047738;28;20068;-78
2022/04/23 10:07:41;;;;;;;17.73;12.63;;;;;;;;;;5041645;28;20064;-79
2022/04/23 10:10:10;;;;;;;16.92;11.80;;;;;;;;;;5040981;28;20058;-79
2022/04/23 10:12:37;;;;;;;19.75;12.95;;;;;;;;;;5047852;28;20073;-81
2022/04/23 10:15:04;;;;;;;17.33;12.30;;;;;;;;;;5048018;28;20050;-80
2022/04/23 10:17:31;;;;;;;19.00;12.82;;;;;;;;;;5043365;28;20064;-79
2022/04/23 10:19:58;;;;;;;18.30;13.13;;;;;;;;;;5049358;28;20057;-79
2022/04/23 10:22:29;;;;;;;18.75;12.07;;;;;;;;;;5048827;28;20137;-79
2022/04/23 10:25:17;;;;;;;17.42;13.45;;;;;;;;;;5057858;28;20053;-78
2022/04/23 10:27:44;;;;;;;20.23;13.27;;;;;;;;;;5042132;28;20080;-79
2022/04/23 10:30:12;;;;;;;18.45;12.60;;;;;;;;;;5045237;28;20571;-79
2022/04/23 10:32:43;;;;;;;18.52;12.70;;;;;;;;;;5049014;28;20041;-81
2022/04/23 10:35:18;;;;;;;18.25;12.93;;;;;;;;;;5047859;28;20050;-81
2022/04/23 10:37:49;;;;;;;17.95;12.65;;;;;;;;;;5053263;28;20110;-81
2022/04/23 10:40:17;;;;;;;16.23;12.68;;;;;;;;;;5047218;28;20053;-82
2022/04/23 10:43:06;;;;;;;16.90;13.25;;;;;;;;;;5051313;28;20085;-80
2022/04/23 10:45:33;;;;;;;21.10;13.40;;;;;;;;;;5042867;28;20108;-81
2022/04/23 10:48:18;;;;;;;19.25;13.20;;;;;;;;;;5048161;28;20056;-81
2022/04/23 10:51:00;;;;;;;19.70;15.23;;;;;;;;;;5049997;28;20046;-80
2022/04/23 10:53:37;;;;;;;19.02;13.55;;;;;;;;;;5050668;28;20500;-81
2022/04/23 10:56:07;;;;;;;20.20;14.15;;;;;;;;;;5041918;28;20046;-81
2022/04/23 10:58:34;;;;;;;;;;;;;;;;;;5049154;28;20054;-81
2022/04/23 11:01:20;;;;;;;19.83;12.55;;;;;;;;;;5062665;28;41424;-79
2022/04/23 11:03:57;;;;;;;18.58;13.95;;;;;;;;;;5049083;28;20137;-81
2022/04/23 11:12:32;;;;;;;18.27;13.52;;;;;;;;;;5051573;28;20070;-82
2022/04/23 11:15:00;;;;;;;23.70;12.55;;;;;;;;;;5050436;28;20076;-79
2022/04/23 11:17:36;;;;;;;21.42;14.05;;;;;;;;;;5053744;28;20455;-82
2022/04/23 11:20:03;;;;;;;17.08;11.98;;;;;;;;;;5051442;28;20355;-81
2022/04/23 11:22:29;;;;;;;25.95;13.70;;;;;;;;;;5050537;28;20085;-80
2022/04/23 11:24:57;;;;;;;22.02;13.27;;;;;;;;;;5059908;28;20073;-81
2022/04/23 11:27:25;;;;;;;22.30;13.43;;;;;;;;;;5047604;28;20550;-81
2022/04/23 11:29:52;;;;;;;17.90;12.68;;;;;;;;;;5050666;28;20076;-82
2022/04/23 11:32:31;;;;;;;19.42;13.35;;;;;;;;;;5050280;28;20180;-80
2022/04/23 11:34:58;;;;;;;18.33;13.80;;;;;;;;;;5050241;28;20061;-84
2022/04/23 11:37:27;;;;;;;20.65;15.40;;;;;;;;;;5042569;28;20109;-81
2022/04/23 11:40:03;;;;;;;20.92;15.25;;;;;;;;;;5044200;28;20147;-81
2022/04/23 11:42:45;;;;;;;21.23;14.63;;;;;;;;;;5045927;28;20049;-81
2022/04/23 11:45:12;;;;;;;21.55;14.07;;;;;;;;;;5064474;28;20106;-82
2022/04/23 11:47:39;;;;;;;21.08;14.05;;;;;;;;;;5049815;28;20088;-80
2022/04/23 11:50:11;;;;;;;21.88;15.55;;;;;;;;;;5050367;28;20136;-82
2022/04/23 11:52:38;;;;;;;20.15;14.40;;;;;;;;;;5047107;28;20095;-79
2022/04/23 11:55:05;;;;;;;21.10;15.63;;;;;;;;;;5047652;28;20119;-81
2022/04/23 11:57:31;;;;;;;21.33;14.40;;;;;;;;;;5049137;28;20582;-80
2022/04/23 12:00:02;;;;;;;23.73;15.98;;;;;;;;;;5041344;28;20058;-81
2022/04/23 12:02:29;;;;;;;21.65;16.13;;;;;;;;;;5051275;28;20061;-81
2022/04/23 12:04:57;;;;;;;23.52;15.15;;;;;;;;;;5059523;28;20053;-81
2022/04/23 12:07:24;;;;;;;22.67;15.00;;;;;;;;;;5052423;28;20057;-81
2022/04/23 12:09:52;;;;;;;19.65;14.23;;;;;;;;;;5058395;28;20053;-80
2022/04/23 12:12:21;;;;;;;22.42;15.25;;;;;;;;;;5053399;28;20124;-80
2022/04/23 12:14:52;;;;;;;19.35;15.13;;;;;;;;;;5055496;28;20957;-83
2022/04/23 12:17:26;;;;;;;19.45;14.70;;;;;;;;;;5048151;28;20061;-80
2022/04/23 12:20:00;;;;;;;19.40;14.52;;;;;;;;;;5042634;28;20140;-81
2022/04/23 12:22:33;;;;;;;23.88;15.50;;;;;;;;;;5052635;28;20081;-81
2022/04/23 12:25:07;;;;;;;19.40;14.07;;;;;;;;;;5056479;28;20064;-80
2022/04/23 12:27:53;;;;;;;19.65;14.50;;;;;;;;;;5056701;28;20500;-81
2022/04/23 12:41:56;;;;;;;19.35;14.52;;;;;;;;;;5050543;28;20526;-82
2022/04/23 12:44:23;;;;;;;20.23;14.30;;;;;;;;;;5056773;28;20046;-81
2022/04/23 12:46:57;;;;;;;19.58;14.77;;;;;;;;;;5053762;28;20582;-80
2022/04/23 12:49:23;;;;;;;18.77;13.75;;;;;;;;;;5052120;28;21004;-82
2022/04/23 12:51:51;;;;;;;20.33;14.85;;;;;;;;;;5045728;28;20081;-80
2022/04/23 12:54:17;;;;;;;19.45;14.30;;;;;;;;;;5047828;28;20096;-83
2022/04/23 12:56:44;;;;;;;20.05;14.48;;;;;;;;;;5047296;28;20105;-81
2022/04/23 12:59:10;;;;;;;22.20;13.35;;;;;;;;;;5054060;28;20061;-80
2022/04/23 13:01:37;;;;;;;20.48;14.02;;;;;;;;;;5042205;28;20143;-82
2022/04/23 13:04:06;;;;;;;25.92;14.98;;;;;;;;;;5051864;28;20128;-82
2022/04/23 13:09:17;;;;;;;18.15;12.52;;;;;;;;;;5049343;28;20137;-80
2022/04/23 13:11:44;;;;;;;21.70;14.15;;;;;;;;;;5051879;28;20059;-80
2022/04/23 13:14:10;;;;;;;17.52;13.18;;;;;;;;;;5041113;28;20078;-79
2022/04/23 13:16:38;;;;;;;19.10;12.85;;;;;;;;;;5045326;28;20080;-82
2022/04/23 13:19:04;;;;;;;17.77;13.65;;;;;;;;;;5050959;28;20309;-79
2022/04/23 13:21:32;;;;;;;18.13;13.10;;;;;;;;;;5051835;28;20093;-82
2022/04/23 13:23:59;;;;;;;19.27;13.13;;;;;;;;;;5055343;28;20145;-81
2022/04/23 13:26:27;;;;;;;18.50;12.70;;;;;;;;;;5051107;28;20049;-82
2022/04/23 13:28:54;;;;;;;18.80;12.77;;;;;;;;;;5051732;28;20038;-82
2022/04/23 13:31:21;;;;;;;16.85;12.40;;;;;;;;;;5053846;28;20045;-82
2022/04/23 13:33:47;;;;;;;18.00;12.82;;;;;;;;;;5051147;28;20057;-81
2022/04/23 13:36:14;;;;;;;20.52;12.77;;;;;;;;;;5051395;28;20061;-82
2022/04/23 13:38:40;;;;;;;17.73;12.80;;;;;;;;;;5053276;28;21033;-82
2022/04/23 13:41:13;;;;;;;19.85;13.35;;;;;;;;;;5052334;28;20856;-82
2022/04/23 13:43:40;;;;;;;16.42;12.27;;;;;;;;;;5052921;28;20050;-81
2022/04/23 13:46:08;;;;;;;17.67;12.80;;;;;;;;;;5052337;28;20123;-82
2022/04/23 13:48:34;;;;;;;17.08;11.45;;;;;;;;;;5064426;28;21068;-81
2022/04/23 13:51:01;;;;;;;16.65;12.13;;;;;;;;;;5057441;28;20558;-81
2022/04/23 13:53:27;;;;;;;18.35;11.43;;;;;;;;;;5048982;28;20140;-82
2022/04/23 13:55:54;;;;;;;14.35;10.75;;;;;;;;;;5037374;28;20103;-82
2022/04/23 13:58:20;;;;;;;14.45;10.63;;;;;;;;;;5044605;28;20554;-81
2022/04/23 14:00:46;;;;;;;16.88;11.80;;;;;;;;;;5054888;28;20057;-82
2022/04/23 14:11:29;;;;;;;17.27;9.80;;;;;;;;;;5048997;28;20045;-82
2022/04/23 14:13:55;;;;;;;13.07;9.60;;;;;;;;;;5053272;28;20061;-82
2022/04/23 14:16:21;;;;;;;16.02;10.15;;;;;;;;;;5052060;28;20103;-82
2022/04/23 14:18:51;;;;;;;17.33;10.48;;;;;;;;;;5060365;28;20176;-81
2022/04/23 14:21:27;;;;;;;12.73;10.37;;;;;;;;;;5061097;28;20057;-81
2022/04/23 14:24:11;;;;;;;13.85;10.00;;;;;;;;;;5046840;28;20544;-82
2022/04/23 14:26:37;;;;;;;12.48;9.35;;;;;;;;;;5050691;28;20092;-82
2022/04/23 14:29:04;;;;;;;12.07;8.85;;;;;;;;;;5050281;28;20507;-82
2022/04/23 14:31:31;;;;;;;11.55;9.15;;;;;;;;;;5051863;28;20061;-82
2022/04/23 14:33:57;;;;;;;13.63;8.65;;;;;;;;;;5051402;28;20525;-81
2022/04/23 14:36:26;;;;;;;15.68;9.98;;;;;;;;;;5053803;28;20054;-81
2022/04/23 14:38:55;;;;;;;17.02;10.02;;;;;;;;;;5056392;28;20573;-81
2022/04/23 14:41:35;;;;;;;12.55;8.98;;;;;;;;;;5057470;28;20054;-81
2022/04/23 14:44:02;;;;;;;11.13;7.97;;;;;;;;;;5058665;28;20049;-81
2022/04/23 14:46:29;;;;;;;11.63;8.80;;;;;;;;;;5059222;28;20141;-82
2022/04/23 14:48:56;;;;;;;11.18;8.25;;;;;;;;;;5053461;28;20080;-81
2022/04/23 14:54:10;;;;;;;12.98;9.48;;;;;;;;;;5047216;28;20131;-81
2022/04/23 14:56:42;;;;;;;16.80;8.90;;;;;;;;;;5052637;28;20802;-80
2022/04/23 14:59:09;;;;;;;13.65;8.93;;;;;;;;;;5051533;28;20942;-80
2022/04/23 15:01:41;;;;;;;15.10;8.63;;;;;;;;;;5053421;28;20948;-81
2022/04/23 15:04:11;;;;;;;12.73;8.75;;;;;;;;;;5046693;28;20812;-81
2022/04/23 15:06:41;;;;;;;13.20;9.18;;;;;;;;;;5049541;28;20500;-81
2022/04/23 15:09:08;;;;;;;13.15;8.98;;;;;;;;;;5044036;28;20096;-81
2022/04/23 15:11:34;;;;;;;13.07;8.93;;;;;;;;;;5043544;28;20099;-81
2022/04/23 15:14:01;;;;;;;13.02;8.93;;;;;;;;;;5050993;28;20096;-80